URMN Airport Information

Runway Information
Runway 06 Length 7218 ft width 138 ft
Elevation 1462 ft Threshold 0 ft Heading 63
Runway 24 Length 7218 ft Width 138 ft
Elevation 1378 ft Threshold 0 ft Heading 243
Airport Frequencies
Type APP Name APP Frequency 126.9 MHZ
Type RDR Name ASR Frequency 126.9 MHZ
Type TWR Name TWR Frequency 118.3 MHZ
Airport Navaids
Type NDB Name Nalchik Frequency 718 KHZ
Airport Weather Information & NOTAM
ADDS - METARS form results

(0008 UTC 24 January 2020)
Data provider http://aviationweather.gov/metar/data/
 
Forecast for: URMN (NALCHIK , RU)
Text: TAF URMN 232300Z 2400/2409 02003G08MPS 9999 BKN020CB
Forecast period: 0000 to 0900 UTC 24 January 2020
Forecast type: FROM: standard forecast or significant change
Winds: from the NNE (20 degrees) at 7 MPH (6 knots; 3.1 m/s)
gusting to 18 MPH (16 knots; 8.2 m/s)
Visibility: 6 or more miles 10+ km)
Ceiling: 2000 feet AGL
Clouds: broken clouds at 2000 feet AGL
Weather: no significant weather forecast for this period
Text: TEMPO 2400/2406 3100 -SHSN SCT011 BKN020CB
Forecast period: 0000 to 0600 UTC 24 January 2020
Forecast type: TEMPORARY: The following changes expected for less than half the time period
Visibility: 1.93 miles (3.11 km)
Ceiling: 2000 feet AGL
Clouds: scattered clouds at 1100 feet AGL
broken clouds at 2000 feet AGL
Weather: -SHSN  (light snow showers)